createdAt,value
2022-08-08T00:00:52.901Z,20.11
2022-08-08T00:02:33.855Z,20.49
2022-08-08T00:04:48.945Z,21.10
2022-08-08T00:07:12.504Z,21.62
2022-08-08T00:09:22.357Z,21.92
2022-08-08T00:11:46.790Z,21.82
2022-08-08T00:14:15.692Z,22.16
2022-08-08T00:16:28.881Z,22.28
2022-08-08T00:18:40.794Z,22.17
2022-08-08T00:20:50.725Z,22.43
2022-08-08T00:22:58.013Z,21.31
2022-08-08T00:25:06.184Z,22.34
2022-08-08T00:27:14.098Z,22.28
2022-08-08T00:29:44.802Z,21.47
2022-08-08T00:32:28.513Z,21.77
2022-08-08T00:35:04.757Z,21.96
2022-08-08T00:37:47.443Z,21.74
2022-08-08T00:41:08.926Z,22.02
2022-08-08T00:42:46.049Z,21.52
2022-08-08T00:45:35.165Z,21.53
2022-08-08T00:48:30.203Z,21.31
2022-08-08T00:51:21.997Z,21.38
2022-08-08T00:54:13.382Z,21.49
2022-08-08T00:56:44.879Z,21.07
2022-08-08T00:59:44.638Z,21.05
2022-08-08T01:03:15.192Z,21.10
2022-08-08T01:05:04.253Z,20.44
2022-08-08T01:07:56.490Z,20.77
2022-08-08T01:10:44.492Z,20.34
2022-08-08T01:13:37.989Z,20.57
2022-08-08T01:16:17.371Z,20.56
2022-08-08T01:18:56.887Z,20.64
2022-08-08T01:22:10.234Z,20.37
2022-08-08T01:24:29.009Z,20.21
2022-08-08T01:26:56.892Z,20.03
2022-08-08T01:29:58.559Z,20.10
2022-08-08T01:32:53.145Z,19.72
2022-08-08T01:35:38.538Z,19.45
2022-08-08T01:38:11.274Z,19.64
2022-08-08T01:40:30.979Z,20.12
2022-08-08T01:42:40.674Z,19.99
2022-08-08T01:45:02.830Z,19.32
2022-08-08T01:48:23.614Z,19.25
2022-08-08T01:49:53.748Z,19.01
2022-08-08T01:52:51.347Z,18.97
2022-08-08T01:55:25.562Z,18.20
2022-08-08T01:57:33.724Z,18.33
2022-08-08T02:00:18.199Z,19.24
2022-08-08T02:02:42.403Z,18.78
2022-08-08T02:04:58.781Z,18.13
2022-08-08T02:07:06.371Z,17.92
2022-08-08T02:10:01.814Z,17.80
2022-08-08T02:12:00.553Z,18.19
2022-08-08T02:14:20.432Z,18.57
2022-08-08T02:16:29.764Z,18.31
2022-08-08T02:18:40.607Z,18.81
2022-08-08T02:21:08.523Z,18.98
2022-08-08T02:23:31.699Z,18.53
2022-08-08T02:25:48.514Z,18.60
2022-08-08T02:28:02.920Z,18.77
2022-08-08T02:30:20.749Z,19.42
2022-08-08T02:32:39.224Z,17.44
2022-08-08T02:35:19.434Z,17.46
2022-08-08T02:37:57.168Z,18.30
2022-08-08T02:40:10.508Z,18.80
2022-08-08T02:42:47.875Z,19.02
2022-08-08T02:45:51.747Z,19.15
2022-08-08T02:48:37.323Z,19.42
2022-08-08T02:51:21.260Z,19.15
2022-08-08T02:53:50.706Z,19.66
2022-08-08T02:56:52.837Z,19.68
2022-08-08T02:59:55.652Z,19.87
2022-08-08T03:02:21.172Z,20.33
2022-08-08T03:05:24.873Z,20.55
2022-08-08T03:08:10.373Z,19.47
2022-08-08T03:10:53.799Z,20.75
2022-08-08T03:16:00.784Z,20.90
2022-08-08T03:16:34.282Z,21.05
2022-08-08T03:18:53.505Z,21.08
2022-08-08T03:20:57.189Z,21.08
2022-08-08T03:23:04.897Z,21.05
2022-08-08T03:25:17.934Z,20.98
2022-08-08T03:27:31.347Z,20.91
2022-08-08T03:29:56.241Z,20.89
2022-08-08T03:32:19.010Z,20.81
2022-08-08T03:34:22.609Z,20.81
2022-08-08T03:36:31.351Z,20.70
2022-08-08T03:38:53.779Z,20.68
2022-08-08T03:42:03.904Z,20.69
2022-08-08T03:43:38.221Z,20.54
2022-08-08T03:46:07.019Z,20.55
2022-08-08T03:48:08.609Z,20.57
2022-08-08T03:50:26.560Z,20.22
2022-08-08T03:52:33.913Z,20.59
2022-08-08T03:54:41.381Z,20.60
2022-08-08T03:58:30.011Z,20.58
2022-08-08T03:59:30.685Z,20.61
2022-08-08T04:02:15.794Z,20.21
2022-08-08T04:04:01.898Z,20.17
2022-08-08T04:06:18.140Z,20.50
2022-08-08T04:08:33.564Z,20.41
2022-08-08T04:10:41.550Z,20.49
2022-08-08T04:12:47.934Z,20.47
2022-08-08T04:14:53.125Z,20.18
2022-08-08T04:16:58.477Z,20.26
2022-08-08T04:19:01.440Z,20.08
2022-08-08T04:21:06.499Z,20.26
2022-08-08T04:23:10.495Z,20.28
2022-08-08T04:25:18.287Z,20.27
2022-08-08T04:28:03.090Z,20.38
2022-08-08T04:30:00.646Z,20.48
2022-08-08T04:32:10.591Z,20.42
2022-08-08T04:34:14.083Z,20.40
2022-08-08T04:36:21.301Z,20.37
2022-08-08T04:38:24.328Z,20.41
2022-08-08T04:40:30.599Z,20.49
2022-08-08T04:42:36.932Z,20.42
2022-08-08T04:44:40.507Z,19.64
2022-08-08T04:46:43.603Z,19.65
2022-08-08T04:48:46.735Z,19.39
2022-08-08T04:50:51.405Z,18.98
2022-08-08T04:53:04.834Z,19.19
2022-08-08T04:55:09.846Z,19.20
2022-08-08T04:57:13.717Z,18.09
2022-08-08T04:59:18.516Z,18.34
2022-08-08T05:01:35.493Z,17.99
2022-08-08T05:04:08.210Z,17.69
2022-08-08T05:06:25.887Z,17.19
2022-08-08T05:08:32.055Z,17.36
2022-08-08T05:10:34.953Z,17.24
2022-08-08T05:12:53.323Z,17.19
2022-08-08T05:15:04.383Z,17.19
2022-08-08T05:17:10.639Z,17.19
2022-08-08T05:20:12.763Z,16.37
2022-08-08T05:21:43.453Z,17.09
2022-08-08T05:24:04.307Z,17.15
2022-08-08T05:26:14.311Z,17.19
2022-08-08T05:28:55.779Z,17.19
2022-08-08T05:30:47.263Z,16.78
2022-08-08T05:32:53.745Z,17.12
2022-08-08T05:35:01.835Z,16.89
2022-08-08T05:37:17.237Z,16.88
2022-08-08T05:39:25.227Z,16.96
2022-08-08T05:41:55.106Z,17.00
2022-08-08T05:44:14.388Z,17.07
2022-08-08T05:46:22.269Z,16.79
2022-08-08T05:48:31.154Z,17.09
2022-08-08T05:50:36.228Z,17.17
2022-08-08T05:52:40.753Z,17.27
2022-08-08T05:54:51.127Z,17.27
2022-08-08T05:56:57.321Z,17.33
2022-08-08T05:59:05.990Z,17.46
2022-08-08T06:01:55.786Z,16.56
2022-08-08T06:03:43.807Z,17.72
2022-08-08T06:05:59.245Z,16.78
2022-08-08T06:08:20.389Z,17.93
2022-08-08T06:10:29.942Z,17.77
2022-08-08T06:12:33.956Z,18.07
2022-08-08T06:14:38.149Z,18.15
2022-08-08T06:16:52.453Z,18.21
2022-08-08T06:19:07.325Z,18.36
2022-08-08T06:21:28.389Z,18.51
2022-08-08T06:23:52.948Z,18.66
2022-08-08T06:26:38.766Z,18.71
2022-08-08T06:28:33.155Z,18.81
2022-08-08T06:30:37.817Z,18.93
2022-08-08T06:32:47.517Z,18.96
2022-08-08T06:35:12.140Z,19.06
2022-08-08T06:37:25.914Z,18.98
2022-08-08T06:39:35.748Z,19.18
2022-08-08T06:42:02.629Z,19.39
2022-08-08T06:44:18.752Z,19.34
2022-08-08T06:46:31.912Z,19.55
2022-08-08T06:48:36.701Z,19.73
2022-08-08T06:50:42.927Z,19.80
2022-08-08T06:52:50.451Z,19.75
2022-08-08T06:54:58.482Z,20.01
2022-08-08T06:57:02.367Z,19.97
2022-08-08T06:59:12.064Z,20.23
2022-08-08T07:02:17.564Z,20.29
2022-08-08T07:04:37.863Z,20.36
2022-08-08T07:06:23.437Z,19.36
2022-08-08T07:08:34.686Z,20.39
2022-08-08T07:10:44.569Z,20.61
2022-08-08T07:12:55.288Z,20.71
2022-08-08T07:15:11.449Z,20.75
2022-08-08T07:17:56.820Z,20.80
2022-08-08T07:20:07.598Z,20.93
2022-08-08T07:22:25.108Z,21.19
2022-08-08T07:24:34.351Z,21.34
2022-08-08T07:26:41.129Z,21.46
2022-08-08T07:28:46.637Z,21.35
2022-08-08T07:30:50.491Z,21.54
2022-08-08T07:32:54.756Z,21.33
2022-08-08T07:35:08.441Z,21.73
2022-08-08T07:37:18.485Z,21.74
2022-08-08T07:39:29.828Z,21.79
2022-08-08T07:42:03.817Z,21.87
2022-08-08T07:44:33.503Z,22.06
2022-08-08T07:46:32.535Z,22.10
2022-08-08T07:48:42.094Z,22.13
2022-08-08T07:50:47.432Z,22.22
2022-08-08T07:52:57.294Z,22.30
2022-08-08T07:55:05.525Z,22.30
2022-08-08T07:57:23.892Z,22.16
2022-08-08T07:59:37.431Z,21.55
2022-08-08T08:02:34.430Z,22.57
2022-08-08T08:04:16.257Z,22.65
2022-08-08T08:06:22.085Z,22.62
2022-08-08T08:08:39.162Z,22.65
2022-08-08T08:10:47.172Z,22.78
2022-08-08T08:12:54.919Z,22.91
2022-08-08T08:15:05.034Z,23.07
2022-08-08T08:17:13.946Z,20.67
2022-08-08T08:19:17.949Z,23.25
2022-08-08T08:21:44.140Z,23.19
2022-08-08T08:23:53.865Z,23.31
2022-08-08T08:26:06.148Z,23.50
2022-08-08T08:28:09.374Z,23.62
2022-08-08T08:30:13.963Z,23.74
2022-08-08T08:32:32.010Z,23.87
2022-08-08T08:34:43.067Z,23.98
2022-08-08T08:36:51.488Z,24.05
2022-08-08T08:39:00.324Z,24.18
2022-08-08T08:41:16.858Z,24.32
2022-08-08T08:43:26.782Z,23.71
2022-08-08T08:45:33.213Z,24.45
2022-08-08T08:47:43.937Z,24.61
2022-08-08T08:49:48.281Z,24.71
2022-08-08T08:51:52.733Z,24.80
2022-08-08T08:53:59.761Z,24.35
2022-08-08T08:56:11.288Z,25.03
2022-08-08T08:58:25.361Z,25.12
2022-08-08T09:00:44.569Z,25.41
2022-08-08T09:02:53.681Z,25.61
2022-08-08T09:05:00.193Z,25.61
2022-08-08T09:07:12.218Z,25.66
2022-08-08T09:09:36.189Z,25.70
2022-08-08T09:12:02.143Z,25.79
2022-08-08T09:14:12.311Z,25.86
2022-08-08T09:16:17.138Z,25.47
2022-08-08T09:18:21.473Z,25.85
2022-08-08T09:22:02.794Z,26.09
2022-08-08T09:22:55.304Z,26.14
2022-08-08T09:25:02.784Z,26.25
2022-08-08T09:27:20.412Z,26.34
2022-08-08T09:29:28.207Z,26.33
2022-08-08T09:31:57.049Z,26.45
2022-08-08T09:34:31.037Z,26.24
2022-08-08T09:36:33.697Z,26.20
2022-08-08T09:38:52.544Z,25.56
2022-08-08T09:41:00.752Z,26.21
2022-08-08T09:43:16.887Z,26.61
2022-08-08T09:46:01.895Z,25.41
2022-08-08T09:48:03.817Z,26.54
2022-08-08T09:50:14.381Z,26.93
2022-08-08T09:52:57.490Z,27.08
2022-08-08T09:54:47.384Z,27.22
2022-08-08T09:56:56.286Z,27.59
2022-08-08T09:59:15.201Z,27.65
2022-08-08T10:01:59.072Z,27.17
2022-08-08T10:03:56.311Z,27.79
2022-08-08T10:06:00.946Z,27.67
2022-08-08T10:08:04.810Z,27.73
2022-08-08T10:10:12.774Z,27.44
2022-08-08T10:12:26.756Z,28.02
2022-08-08T10:14:41.019Z,28.40
2022-08-08T10:16:46.901Z,27.92
2022-08-08T10:19:03.914Z,28.17
2022-08-08T10:21:24.966Z,28.43
2022-08-08T10:23:44.058Z,28.25
2022-08-08T10:25:57.119Z,28.57
2022-08-08T10:28:00.848Z,28.58
2022-08-08T10:30:07.999Z,28.27
2022-08-08T10:32:50.721Z,28.36
2022-08-08T10:35:01.285Z,29.03
2022-08-08T10:37:05.475Z,28.57
2022-08-08T10:39:10.180Z,28.44
2022-08-08T10:41:19.973Z,29.02
2022-08-08T10:43:24.624Z,29.20
2022-08-08T10:45:56.168Z,28.75
2022-08-08T10:48:02.112Z,28.46
2022-08-08T10:50:07.091Z,28.97
2022-08-08T10:52:09.883Z,28.97
2022-08-08T10:54:20.522Z,29.34
2022-08-08T10:56:27.708Z,29.38
2022-08-08T10:58:35.473Z,29.31
2022-08-08T11:00:52.650Z,29.05
2022-08-08T11:03:15.708Z,29.62
2022-08-08T11:05:19.617Z,29.41
2022-08-08T11:08:31.394Z,29.89
2022-08-08T11:09:52.898Z,29.81
2022-08-08T11:12:05.507Z,30.00
2022-08-08T11:14:16.690Z,30.10
2022-08-08T11:16:32.340Z,30.07
2022-08-08T11:18:37.376Z,30.22
2022-08-08T11:20:41.853Z,30.68
2022-08-08T11:22:56.557Z,30.42
2022-08-08T11:25:02.048Z,30.22
2022-08-08T11:27:19.624Z,30.42
2022-08-08T11:29:29.369Z,30.95
2022-08-08T11:31:50.112Z,30.86
2022-08-08T11:34:03.280Z,30.66
2022-08-08T11:36:19.954Z,30.79
2022-08-08T11:38:35.184Z,31.20
2022-08-08T11:40:41.762Z,31.18
2022-08-08T11:42:45.367Z,30.95
2022-08-08T11:44:49.452Z,31.65
2022-08-08T11:46:57.757Z,31.54
2022-08-08T11:49:04.185Z,31.34
2022-08-08T11:51:30.632Z,30.89
2022-08-08T11:53:31.861Z,30.03
2022-08-08T11:55:49.757Z,30.02
2022-08-08T11:58:06.834Z,30.68
2022-08-08T12:00:18.887Z,31.39
2022-08-08T12:02:41.941Z,31.47
2022-08-08T12:04:48.444Z,31.50
2022-08-08T12:06:51.295Z,32.05
2022-08-08T12:09:06.325Z,32.77
2022-08-08T12:11:12.745Z,32.49
2022-08-08T12:13:33.281Z,32.70
2022-08-08T12:15:48.220Z,32.32
2022-08-08T12:17:53.589Z,32.68
2022-08-08T12:19:58.508Z,32.51
2022-08-08T12:22:09.434Z,31.53
2022-08-08T12:24:19.362Z,32.34
2022-08-08T12:26:28.326Z,32.69
2022-08-08T12:28:38.828Z,32.45
2022-08-08T12:30:42.002Z,33.35
2022-08-08T12:32:50.857Z,33.35
2022-08-08T12:35:13.575Z,33.82
2022-08-08T12:37:22.653Z,34.21
2022-08-08T12:40:00.651Z,33.51
2022-08-08T12:42:05.893Z,32.22
2022-08-08T12:44:32.342Z,32.43
2022-08-08T12:46:36.499Z,32.13
2022-08-08T12:48:39.288Z,32.78
2022-08-08T12:50:47.068Z,32.74
2022-08-08T12:52:54.785Z,33.43
2022-08-08T12:55:13.254Z,34.01
2022-08-08T12:57:17.728Z,33.15
2022-08-08T12:59:27.250Z,32.24
2022-08-08T13:01:39.522Z,33.11
2022-08-08T13:03:49.102Z,33.91
2022-08-08T13:06:13.921Z,34.69
2022-08-08T13:08:18.131Z,34.83
2022-08-08T13:10:21.111Z,35.18
2022-08-08T13:12:33.578Z,34.98
2022-08-08T13:14:38.863Z,34.14
2022-08-08T13:16:56.530Z,33.66
2022-08-08T13:19:11.757Z,32.92
2022-08-08T13:21:17.068Z,33.46
2022-08-08T13:23:31.414Z,33.93
2022-08-08T13:25:40.211Z,34.11
2022-08-08T13:27:43.346Z,33.58
2022-08-08T13:29:51.364Z,33.77
2022-08-08T13:31:55.747Z,34.14
2022-08-08T13:33:59.918Z,34.88
2022-08-08T13:36:10.773Z,33.97
2022-08-08T13:38:20.819Z,34.37
2022-08-08T13:40:26.747Z,34.38
2022-08-08T13:42:31.303Z,35.17
2022-08-08T13:44:34.248Z,35.53
2022-08-08T13:46:53.328Z,34.79
2022-08-08T13:50:32.144Z,35.07
2022-08-08T13:51:33.454Z,35.27
2022-08-08T13:53:53.382Z,35.09
2022-08-08T13:56:06.943Z,34.98
2022-08-08T13:58:20.090Z,35.26
2022-08-08T14:00:23.894Z,35.69
2022-08-08T14:02:31.211Z,35.46
2022-08-08T14:04:37.514Z,35.37
2022-08-08T14:06:59.485Z,34.63
2022-08-08T14:09:25.228Z,34.95
2022-08-08T14:11:28.284Z,35.25
2022-08-08T14:13:34.174Z,35.27
2022-08-08T14:15:39.762Z,34.99
2022-08-08T14:17:59.275Z,35.56
2022-08-08T14:20:56.831Z,33.85
2022-08-08T14:22:43.895Z,32.45
2022-08-08T14:24:53.419Z,33.41
2022-08-08T14:26:56.703Z,33.52
2022-08-08T14:29:01.479Z,32.71
2022-08-08T14:31:10.503Z,34.28
2022-08-08T14:33:15.179Z,34.36
2022-08-08T14:35:20.060Z,35.12
2022-08-08T14:37:27.934Z,35.40
2022-08-08T14:39:53.765Z,34.55
2022-08-08T14:42:03.393Z,36.15
2022-08-08T14:44:19.538Z,35.51
2022-08-08T14:46:31.117Z,36.27
2022-08-08T14:48:52.568Z,36.36
2022-08-08T14:51:06.538Z,36.60
2022-08-08T14:53:13.463Z,36.79
2022-08-08T14:55:22.768Z,36.02
2022-08-08T14:58:06.296Z,34.84
2022-08-08T15:00:06.696Z,35.53
2022-08-08T15:02:15.249Z,35.98
2022-08-08T15:04:18.742Z,35.79
2022-08-08T15:06:22.417Z,36.51
2022-08-08T15:08:34.273Z,36.55
2022-08-08T15:10:40.131Z,36.91
2022-08-08T15:12:46.917Z,37.19
2022-08-08T15:14:49.761Z,37.57
2022-08-08T15:16:52.655Z,37.70
2022-08-08T15:18:55.429Z,37.55
2022-08-08T15:20:58.264Z,36.58
2022-08-08T15:23:01.604Z,37.09
2022-08-08T15:25:08.634Z,37.20
2022-08-08T15:28:03.460Z,37.58
2022-08-08T15:29:44.112Z,37.88
2022-08-08T15:32:19.001Z,37.96
2022-08-08T15:34:28.990Z,37.92
2022-08-08T15:36:34.045Z,37.77
2022-08-08T15:38:40.613Z,37.78
2022-08-08T15:40:52.500Z,38.09
2022-08-08T15:42:56.844Z,38.12
2022-08-08T15:45:01.056Z,38.09
2022-08-08T15:47:04.473Z,38.28
2022-08-08T15:49:07.236Z,38.34
2022-08-08T15:51:15.650Z,38.46
2022-08-08T15:53:20.679Z,38.74
2022-08-08T15:55:23.915Z,38.80
2022-08-08T15:57:26.683Z,38.75
2022-08-08T16:00:06.015Z,38.40
2022-08-08T16:02:03.281Z,39.08
2022-08-08T16:04:06.571Z,38.78
2022-08-08T16:06:28.213Z,38.49
2022-08-08T16:08:31.785Z,38.63
2022-08-08T16:13:15.269Z,37.53
2022-08-08T16:13:26.697Z,38.86
2022-08-08T16:15:23.362Z,38.53
2022-08-08T16:17:38.744Z,39.00
2022-08-08T16:19:56.852Z,38.96
2022-08-08T16:22:03.116Z,38.70
2022-08-08T16:24:07.802Z,38.91
2022-08-08T16:26:19.180Z,38.82
2022-08-08T16:28:34.970Z,38.65
2022-08-08T16:30:40.247Z,39.11
2022-08-08T16:32:43.254Z,39.52
2022-08-08T16:34:51.304Z,39.09
2022-08-08T16:36:54.101Z,38.98
2022-08-08T16:38:57.813Z,39.22
2022-08-08T16:41:02.631Z,39.16
2022-08-08T16:43:05.521Z,39.12
2022-08-08T16:45:11.558Z,39.50
2022-08-08T16:47:42.281Z,39.39
2022-08-08T16:49:47.839Z,39.42
2022-08-08T16:55:04.076Z,39.85
2022-08-08T16:55:04.913Z,39.61
2022-08-08T16:56:38.504Z,39.84
2022-08-08T16:59:01.242Z,39.64
2022-08-08T17:01:10.724Z,39.77
2022-08-08T17:03:15.373Z,39.43
2022-08-08T17:05:20.922Z,39.67
2022-08-08T17:07:24.688Z,39.76
2022-08-08T17:09:34.825Z,39.75
2022-08-08T17:11:48.795Z,39.50
2022-08-08T17:14:00.944Z,39.15
2022-08-08T17:16:05.231Z,39.33
2022-08-08T17:18:19.409Z,39.47
2022-08-08T17:20:22.661Z,39.30
2022-08-08T17:22:39.148Z,38.65
2022-08-08T17:24:53.876Z,39.33
2022-08-08T17:26:57.987Z,39.25
2022-08-08T17:29:04.371Z,39.11
2022-08-08T17:31:39.075Z,38.92
2022-08-08T17:34:36.835Z,38.94
2022-08-08T17:36:10.085Z,38.83
2022-08-08T17:38:16.686Z,38.78
2022-08-08T17:40:19.559Z,38.55
2022-08-08T17:42:22.615Z,38.44
2022-08-08T17:44:27.014Z,38.16
2022-08-08T17:46:41.127Z,38.91
2022-08-08T17:48:45.249Z,38.96
2022-08-08T17:50:50.704Z,38.79
2022-08-08T17:52:53.935Z,37.51
2022-08-08T17:55:00.548Z,38.33
2022-08-08T17:57:09.556Z,38.46
2022-08-08T17:59:12.569Z,38.10
2022-08-08T18:01:15.278Z,37.86
2022-08-08T18:03:38.343Z,37.10
2022-08-08T18:05:48.588Z,37.23
2022-08-08T18:08:24.950Z,36.60
2022-08-08T18:10:15.817Z,35.49
2022-08-08T18:12:18.638Z,35.06
2022-08-08T18:14:23.960Z,33.83
2022-08-08T18:16:31.137Z,33.36
2022-08-08T18:18:38.673Z,32.32
2022-08-08T18:20:55.313Z,31.19
2022-08-08T18:23:02.939Z,30.36
2022-08-08T18:25:06.445Z,30.23
2022-08-08T18:27:17.216Z,28.87
2022-08-08T18:29:25.778Z,29.30
2022-08-08T18:31:32.537Z,28.83
2022-08-08T18:34:10.342Z,28.16
2022-08-08T18:36:03.025Z,28.46
2022-08-08T18:38:17.334Z,28.45
2022-08-08T18:40:34.789Z,28.44
2022-08-08T18:42:37.852Z,28.25
2022-08-08T18:44:54.952Z,27.56
2022-08-08T18:47:00.036Z,27.75
2022-08-08T18:49:03.568Z,27.75
2022-08-08T18:51:33.454Z,26.79
2022-08-08T18:54:02.694Z,27.47
2022-08-08T18:55:57.185Z,27.32
2022-08-08T18:57:59.997Z,27.39
2022-08-08T19:00:03.024Z,27.11
2022-08-08T19:02:27.761Z,26.56
2022-08-08T19:04:28.995Z,25.76
2022-08-08T19:06:33.886Z,25.41
2022-08-08T19:08:37.846Z,25.14
2022-08-08T19:10:44.456Z,25.24
2022-08-08T19:12:53.154Z,23.19
2022-08-08T19:14:56.575Z,24.26
2022-08-08T19:16:59.515Z,23.84
2022-08-08T19:19:09.644Z,24.45
2022-08-08T19:21:29.236Z,24.11
2022-08-08T19:23:37.030Z,24.08
2022-08-08T19:26:19.834Z,24.39
2022-08-08T19:28:18.064Z,23.99
2022-08-08T19:30:24.474Z,23.94
2022-08-08T19:32:29.184Z,23.96
2022-08-08T19:34:38.749Z,24.20
2022-08-08T19:36:45.455Z,24.22
2022-08-08T19:38:51.393Z,24.39
2022-08-08T19:40:56.061Z,23.71
2022-08-08T19:42:59.699Z,22.75
2022-08-08T19:45:07.271Z,23.41
2022-08-08T19:47:12.473Z,23.25
2022-08-08T19:49:15.687Z,23.18
2022-08-08T19:51:24.856Z,22.69
2022-08-08T19:53:51.883Z,23.22
2022-08-08T19:55:58.365Z,23.44
2022-08-08T19:58:02.404Z,22.05
2022-08-08T20:00:11.037Z,24.07
2022-08-08T20:02:32.348Z,23.53
2022-08-08T20:04:35.500Z,23.52
2022-08-08T20:06:38.355Z,23.63
2022-08-08T20:08:48.147Z,23.69
2022-08-08T20:10:51.561Z,23.88
2022-08-08T20:13:11.335Z,22.66
2022-08-08T20:15:19.247Z,24.08
2022-08-08T20:17:27.823Z,23.35
2022-08-08T20:19:34.185Z,23.51
2022-08-08T20:21:38.433Z,23.72
2022-08-08T20:23:41.378Z,23.63
2022-08-08T20:25:44.417Z,23.56
2022-08-08T20:27:50.217Z,23.08
2022-08-08T20:30:00.912Z,23.24
2022-08-08T20:32:09.964Z,22.20
2022-08-08T20:34:29.014Z,23.35
2022-08-08T20:36:35.260Z,23.09
2022-08-08T20:38:41.635Z,23.09
2022-08-08T20:40:51.209Z,23.13
2022-08-08T20:42:56.090Z,23.33
2022-08-08T20:45:00.287Z,23.34
2022-08-08T20:47:03.673Z,23.41
2022-08-08T20:49:07.308Z,23.66
2022-08-08T20:51:14.438Z,23.69
2022-08-08T20:53:57.841Z,23.27
2022-08-08T20:55:42.585Z,23.31
2022-08-08T20:57:47.785Z,23.33
2022-08-08T20:59:54.548Z,23.66
2022-08-08T21:02:07.782Z,23.50
2022-08-08T21:04:14.197Z,23.50
2022-08-08T21:06:17.178Z,23.33
2022-08-08T21:08:37.167Z,23.60
2022-08-08T21:10:42.763Z,23.78
2022-08-08T21:12:48.423Z,22.55
2022-08-08T21:14:56.956Z,23.51
2022-08-08T21:17:06.781Z,23.70
2022-08-08T21:19:10.954Z,23.83
2022-08-08T21:21:19.790Z,23.92
2022-08-08T21:24:02.633Z,23.86
2022-08-08T21:26:00.899Z,23.73
2022-08-08T21:28:09.819Z,23.63
2022-08-08T21:30:22.055Z,23.65
2022-08-08T21:32:26.563Z,23.54
2022-08-08T21:34:29.989Z,23.61
2022-08-08T21:36:33.209Z,23.29
2022-08-08T21:38:36.189Z,23.15
2022-08-08T21:40:39.244Z,23.48
2022-08-08T21:42:58.248Z,23.43
2022-08-08T21:45:44.425Z,23.66
2022-08-08T21:48:04.362Z,23.55
2022-08-08T21:49:47.882Z,24.00
2022-08-08T21:54:31.636Z,23.86
2022-08-08T21:54:53.842Z,23.52
2022-08-08T21:56:42.126Z,22.67
2022-08-08T21:58:46.383Z,23.48
2022-08-08T22:00:57.608Z,23.44
2022-08-08T22:03:07.125Z,22.99
2022-08-08T22:05:11.890Z,23.14
2022-08-08T22:07:17.818Z,22.92
2022-08-08T22:09:26.840Z,23.15
2022-08-08T22:12:02.274Z,22.49
2022-08-08T22:14:03.039Z,23.25
2022-08-08T22:16:09.883Z,23.10
2022-08-08T22:18:12.728Z,23.31
2022-08-08T22:20:23.430Z,23.27
2022-08-08T22:22:29.185Z,23.35
2022-08-08T22:24:33.662Z,23.35
2022-08-08T22:27:02.684Z,23.55
2022-08-08T22:29:14.756Z,23.46
2022-08-08T22:31:26.450Z,22.96
2022-08-08T22:34:12.339Z,23.61
2022-08-08T22:36:04.675Z,23.53
2022-08-08T22:38:17.799Z,23.26
2022-08-08T22:40:20.832Z,23.56
2022-08-08T22:42:31.451Z,23.60
2022-08-08T22:44:35.036Z,23.68
2022-08-08T22:46:39.809Z,23.63
2022-08-08T22:48:45.523Z,23.48
2022-08-08T22:50:48.414Z,23.42
2022-08-08T22:54:23.809Z,23.31
2022-08-08T22:55:16.390Z,22.40
2022-08-08T22:57:19.145Z,22.92
2022-08-08T22:59:21.897Z,23.09
2022-08-08T23:02:01.800Z,23.15
2022-08-08T23:03:53.672Z,23.22
2022-08-08T23:06:00.098Z,23.24
2022-08-08T23:08:04.721Z,23.13
2022-08-08T23:10:09.735Z,22.98
2022-08-08T23:12:28.897Z,21.92
2022-08-08T23:14:35.210Z,22.82
2022-08-08T23:16:43.542Z,22.86
2022-08-08T23:18:47.101Z,22.93
2022-08-08T23:20:54.769Z,22.95
2022-08-08T23:22:58.360Z,23.02
2022-08-08T23:25:03.866Z,23.02
2022-08-08T23:27:07.641Z,22.03
2022-08-08T23:29:10.933Z,22.77
2022-08-08T23:31:14.040Z,22.73
2022-08-08T23:33:35.944Z,22.18
2022-08-08T23:36:07.489Z,22.27
2022-08-08T23:38:04.807Z,22.37
2022-08-08T23:40:10.500Z,21.89
2022-08-08T23:42:13.419Z,22.65
2022-08-08T23:44:16.196Z,22.69
2022-08-08T23:49:02.104Z,22.83
2022-08-08T23:49:04.917Z,22.96
2022-08-08T23:51:12.909Z,23.02
2022-08-08T23:54:05.169Z,22.45
2022-08-08T23:55:54.732Z,22.82
2022-08-08T23:58:01.815Z,22.87
